Погода Баклановскаяна неделю

Ростовская область, Россия

12 - 18 июля
  • 12июля
    Сегодня
    +18°
    +33°
    Ясно и безоблачно
    ВремяПогодаТемператураВлажностьДавлениеВетер, м/сВероятность осадков
    00:00Практически безоблачно+26°C36 %754 мм5.6 м/с2 %
    03:00Ясно и безоблачно+23°C45 %754 мм4.4 м/с2 %
    06:00Ясно и безоблачно+23°C42 %754 мм4.3 м/с2 %
    09:00Ясно и безоблачно+30°C28 %755 мм5.0 м/с2 %
    12:00Ясно и безоблачно+32°C22 %754 мм5.1 м/с2 %
    15:00Ясно и безоблачно+33°C21 %753 мм5.7 м/с2 %
    18:00Ясно и безоблачно+31°C17 %753 мм5.8 м/с2 %
    21:00Ясно и безоблачно+26°C28 %753 мм5.3 м/с2 %
  • 13июля
    Суббота
    +18°
    +31°
    Ясно и безоблачно
    ВремяПогодаТемператураВлажностьДавлениеВетер, м/сВероятность осадков
    00:00Ясно и безоблачно+22°C34 %753 мм4.8 м/с2 %
    03:00Ясно и безоблачно+19°C39 %753 мм3.8 м/с2 %
    06:00Ясно и безоблачно+20°C40 %754 мм3.4 м/с2 %
    09:00Ясно и безоблачно+28°C27 %754 мм3.5 м/с2 %
    12:00Ясно и безоблачно+30°C21 %753 мм4.5 м/с2 %
    15:00Ясно и безоблачно+31°C14 %752 мм5.0 м/с2 %
    18:00Ясно и безоблачно+30°C17 %752 мм5.2 м/с2 %
    21:00Ясно и безоблачно+25°C26 %752 мм4.0 м/с2 %
  • 14июля
    Воскресенье
    +20°
    +33°
    Ясно и безоблачно
    ВремяПогодаТемператураВлажностьДавлениеВетер, м/сВероятность осадков
    00:00Ясно и безоблачно+21°C36 %752 мм3.4 м/с2 %
    03:00Ясно и безоблачно+19°C50 %752 мм3.2 м/с2 %
    06:00Ясно и безоблачно+20°C50 %752 мм3.4 м/с2 %
    09:00Ясно и безоблачно+28°C26 %753 мм3.0 м/с2 %
    12:00Ясно и безоблачно+31°C21 %752 мм4.0 м/с2 %
    15:00Ясно и безоблачно+32°C23 %751 мм4.3 м/с2 %
    18:00Ясно и безоблачно+32°C26 %751 мм4.7 м/с2 %
    21:00Ясно и безоблачно+27°C33 %752 мм3.7 м/с2 %
  • 15июля
    Понедельник
    +23°
    +37°
    Ясно и безоблачно
    ВремяПогодаТемператураВлажностьДавлениеВетер, м/сВероятность осадков
    00:00Ясно и безоблачно+23°C43 %752 мм4.0 м/с2 %
    03:00Ясно и безоблачно+21°C46 %752 мм3.3 м/с2 %
    06:00Ясно и безоблачно+23°C45 %752 мм3.0 м/с2 %
    09:00Ясно и безоблачно+32°C30 %752 мм2.6 м/с2 %
    12:00Ясно и безоблачно+35°C24 %752 мм3.2 м/с2 %
    15:00Ясно и безоблачно+37°C22 %751 мм4.1 м/с2 %
    18:00Ясно и безоблачно+36°C22 %751 мм3.9 м/с2 %
    21:00Ясно и безоблачно+30°C28 %752 мм3.3 м/с2 %
  • 16июля
    Вторник
    +23°
    +39°
    Практически безоблачно
    ВремяПогодаТемператураВлажностьДавлениеВетер, м/сВероятность осадков
    00:00Ясно и безоблачно+27°C33 %752 мм2.9 м/с2 %
    03:00Ясно и безоблачно+24°C37 %752 мм2.2 м/с2 %
    06:00Ясно и безоблачно+25°C37 %752 мм2.0 м/с2 %
    09:00Ясно и безоблачно+34°C25 %753 мм1.3 м/с2 %
    12:00Небольшая облачность+38°C20 %752 мм2.2 м/с3 %
    15:00Практически безоблачно+39°C20 %751 мм4.0 м/с2 %
    18:00Небольшая облачность+37°C23 %751 мм4.7 м/с2 %
    21:00Практически безоблачно+32°C33 %752 мм3.7 м/с2 %
Мы используем cookies
Соглашаюсь